Details From HECA - Cairo Intl
To RJAA - Narita Intl
Flight Number -
Tags Standard
Created
Modified
Stats Distance 5,179 nm / 9,592 km
Max Altitude 0 ft / 0 m
Waypoints 9
Social Downloads 1
Likes 0
Share VATSIM

Download

Looking for another format? Having issues loading an existing format? Contact us
Advertisement - Login to hide

Notes

None

Route

HECA RIMON TUDMU RABDI GYD34 OBARU ZU SHT11 RJAA

ID Type Via Altitude Latitude Longitude Leg Dist Tot Dist Heading (true) Name
O HECA APT - 0 ft / 0 m 30.13821˚ 31.40615˚ - 0 nm - -
RIMON FIX - 0 ft / 0 m 32.22756˚ 34.45383˚ 200 nm 200 nm 51° / 52° -
TUDMU FIX - 0 ft / 0 m 34.51684˚ 38.12609˚ 229 nm 430 nm 52° / 54° -
RABDI FIX - 0 ft / 0 m 38.71694˚ 45.80667˚ 447 nm 878 nm 53° / 58° -
GYD34 FIX - 0 ft / 0 m 40.61450˚ 50.00225˚ 224 nm 1103 nm 58° / 61° -
OBARU FIX - 0 ft / 0 m 47.48806˚ 75.22000˚ 1157 nm 2260 nm 61° / 78° -
ZU NDB - 0 ft / 0 m 47.93194˚ 80.44917˚ 212 nm 2473 nm 81° / 85° AYAGUZ NDB
SHT11 FIX - 0 ft / 0 m 35.99399˚ 140.01413˚ 2684 nm 5158 nm 83° / 125° -
O RJAA APT - 0 ft / 0 m 35.80271˚ 140.37991˚ 21 nm 5179 nm 123° / 123° -

Altitude Profile

Advertisement - Login to hide

Weather


0- 5 10 15 20 25 30 35+ Temperature / ° C

Clouds and Precipitation
Forecast for 2017-12-13 00:00 UTC. Updated 13 minutes ago

Ground ~20,000 ft ~40,000 ft Winds

HECA

Details ICAO HECA (CAI)
Name Cairo Intl
Region Egypt
Timezone Africa/Cairo (UTC+2.0)
Stats Elevation 382 ft / 116 m (AMSL)
Location 30.121808° 31.406095°
Runways 3
Magnetic Variation 4.403° E

METAR

HECA 122130Z VRB03KT 3000 BR NSC 18/16 Q1020 NOSIG

Decode

TAF

TAF HECA 122100Z 1221/1324 VRB03KT 4000 HZ NSC TEMPO 1300/1307 2000 BR TEMPO 1301/1306 1000 PROB40 TEMPO 1302/1305 0800 FG

Decode

Departure Runways

ID Width Length Bearing (true) Bearing (mag) Surface Threshold Offset Overrun Length
05L 197 ft / 60 m 10,833 ft / 3,302 m 49.29° 44.89° Asphalt 0 ft / 0 m 185 ft / 56 m
05R 197 ft / 60 m 13,126 ft / 4,001 m 49.03° 44.63° Asphalt 0 ft / 0 m 216 ft / 66 m
16 197 ft / 60 m 10,456 ft / 3,187 m 162.61° 158.21° Asphalt 0 ft / 0 m 125 ft / 38 m
23L 197 ft / 60 m 13,126 ft / 4,001 m 229.05° 224.65° Asphalt 0 ft / 0 m 225 ft / 69 m
23R 197 ft / 60 m 10,833 ft / 3,302 m 229.30° 224.90° Asphalt 0 ft / 0 m 185 ft / 56 m
34 197 ft / 60 m 10,456 ft / 3,187 m 342.61° 338.21° Asphalt 0 ft / 0 m 195 ft / 59 m

RJAA

Details ICAO RJAA (NRT)
Name NARITA INTL
Region Japan
Timezone Asia/Tokyo (UTC+9.0)
Stats Elevation 141 ft / 43 m (AMSL)
Location 35.776552° 140.382770°
Runways 2
Magnetic Variation 7.405° W

METAR

RJAA 122130Z 29004KT 9999 FEW030 01/M06 Q1014 NOSIG RMK 1CU030 A2995

Decode

TAF

TAF RJAA 121706Z 1218/1400 31008KT 9999 FEW030= TAF RJBB 121708Z 1218/1400 29023KT 9999 FEW020 BKN050 TEMPO 1303/1306 29023G33KT BECMG 1312/1315 34013KT

Decode

Destination Runways

ID Width Length Bearing (true) Bearing (mag) Surface Threshold Offset Overrun Length
16L 196 ft / 60 m 7,162 ft / 2,183 m 149.61° 157.02° Asphalt 190 ft / 58 m 0 ft / 0 m
16R 196 ft / 60 m 13,142 ft / 4,006 m 149.61° 157.02° Asphalt 0 ft / 0 m 410 ft / 125 m
34L 196 ft / 60 m 13,142 ft / 4,006 m 329.62° 337.03° Asphalt 0 ft / 0 m 415 ft / 126 m
34R 196 ft / 60 m 7,162 ft / 2,183 m 329.62° 337.03° Asphalt 190 ft / 58 m 0 ft / 0 m

Approach Navaids

Runway Type Ident Frequency Range Bearing (true) Bearing (mag) Slope Elevation
16L Localiser ITM 110.70 MHz 18 nm / 33 km 149.62° 157.02° - 141 ft / 43 m (AMSL)
16L Glidescope ITM 110.70 MHz 10 nm / 19 km 149.62° 157.02° 3.00° 141 ft / 43 m (AMSL)
16L DME ITM 110.70 MHz 18 nm / 33 km - - - 145 ft / 44 m (AMSL)
16R Localiser IKF 111.50 MHz 18 nm / 33 km 149.63° 157.03° - 141 ft / 43 m (AMSL)
16R Glidescope IKF 111.50 MHz 10 nm / 19 km 149.62° 157.02° 3.00° 141 ft / 43 m (AMSL)
16R DME IKF 111.50 MHz 18 nm / 33 km - - - 145 ft / 44 m (AMSL)
34L Localiser IYQ 111.90 MHz 18 nm / 33 km 329.61° 337.01° - 141 ft / 43 m (AMSL)
34L Glidescope IYQ 111.90 MHz 10 nm / 19 km 329.62° 337.02° 3.00° 141 ft / 43 m (AMSL)
34L DME IYQ 111.90 MHz 18 nm / 33 km - - - 153 ft / 47 m (AMSL)
34R Localiser ITJ 110.90 MHz 18 nm / 33 km 329.62° 337.02° - 141 ft / 43 m (AMSL)
34R Glidescope ITJ 110.90 MHz 10 nm / 19 km 329.62° 337.02° 3.00° 141 ft / 43 m (AMSL)
34R DME ITJ 110.90 MHz 18 nm / 33 km - - - 148 ft / 45 m (AMSL)

Popular Alternatives